MBU5KW EDDS-EDDP
Flight info
| Callsign | MBU5KW |
|---|---|
| Flight time | 0h 43m |
| Altitude | 23000 |
| Route | DKB9B/25 DKB N869 AMOSA Z77 LONLI/N0381F220 M726 LASGA T953 VOCIM/N0376F210 T954 GOXLI GOXLI1R |
| Aircraft | A20N/M-SDE2E3FGHIJ1RWXY/LB1 |
Departure
| Time | 2026-05-07 19:18 |
|---|---|
| Airport | Stuttgart Airport (EDDS) |
Arrival
| Time | 2026-05-07 20:02 |
|---|---|
| Airport | Leipzig/Halle Airport (EDDP) |
| Time | Latitude | Longitude | Altitude | Speed | Heading |
|---|---|---|---|---|---|
| 2026-05-07 18:44 | 48.68956 | 9.20293 | 1283 ft | 0 kts | 164° |
| 2026-05-07 19:05 | 48.68950 | 9.20295 | 1283 ft | 0 kts | 164° |
| 2026-05-07 19:06 | 48.68949 | 9.20296 | 1283 ft | 1 kts | 164° |
| 2026-05-07 19:06 | 48.68928 | 9.20305 | 1282 ft | 5 kts | 163° |
| 2026-05-07 19:07 | 48.68901 | 9.20364 | 1278 ft | 10 kts | 81° |
| 2026-05-07 19:07 | 48.68926 | 9.20498 | 1274 ft | 15 kts | 74° |
| 2026-05-07 19:07 | 48.68959 | 9.20674 | 1267 ft | 19 kts | 73° |
| 2026-05-07 19:07 | 48.68998 | 9.20877 | 1260 ft | 20 kts | 74° |
| 2026-05-07 19:08 | 48.69036 | 9.21080 | 1254 ft | 19 kts | 74° |
| 2026-05-07 19:08 | 48.69071 | 9.21267 | 1250 ft | 17 kts | 74° |
| 2026-05-07 19:08 | 48.69103 | 9.21432 | 1247 ft | 14 kts | 73° |
| 2026-05-07 19:08 | 48.69128 | 9.21564 | 1247 ft | 11 kts | 73° |
| 2026-05-07 19:09 | 48.69150 | 9.21676 | 1245 ft | 10 kts | 74° |
| 2026-05-07 19:09 | 48.69168 | 9.21778 | 1243 ft | 9 kts | 74° |
| 2026-05-07 19:09 | 48.69185 | 9.21872 | 1241 ft | 10 kts | 74° |
| 2026-05-07 19:09 | 48.69210 | 9.22004 | 1236 ft | 15 kts | 73° |
| 2026-05-07 19:10 | 48.69243 | 9.22170 | 1232 ft | 17 kts | 73° |
| 2026-05-07 19:10 | 48.69279 | 9.22364 | 1227 ft | 20 kts | 74° |
| 2026-05-07 19:10 | 48.69320 | 9.22578 | 1223 ft | 22 kts | 73° |
| 2026-05-07 19:10 | 48.69366 | 9.22812 | 1217 ft | 24 kts | 73° |
| 2026-05-07 19:11 | 48.69414 | 9.23069 | 1208 ft | 26 kts | 75° |
| 2026-05-07 19:11 | 48.69463 | 9.23350 | 1202 ft | 27 kts | 74° |
| 2026-05-07 19:11 | 48.69521 | 9.23630 | 1197 ft | 28 kts | 72° |
| 2026-05-07 19:11 | 48.69569 | 9.23877 | 1193 ft | 12 kts | 74° |
| 2026-05-07 19:12 | 48.69580 | 9.23943 | 1192 ft | 5 kts | 75° |
| 2026-05-07 19:12 | 48.69586 | 9.23979 | 1191 ft | 4 kts | 75° |
| 2026-05-07 19:12 | 48.69595 | 9.24031 | 1191 ft | 0 kts | 76° |
| 2026-05-07 19:12 | 48.69599 | 9.24054 | 1190 ft | 3 kts | 75° |
| 2026-05-07 19:13 | 48.69608 | 9.24103 | 1190 ft | 6 kts | 77° |
| 2026-05-07 19:13 | 48.69600 | 9.24182 | 1188 ft | 9 kts | 112° |
| 2026-05-07 19:13 | 48.69587 | 9.24222 | 1186 ft | 0 kts | 117° |
| 2026-05-07 19:13 | 48.69585 | 9.24230 | 1186 ft | 0 kts | 118° |
| 2026-05-07 19:14 | 48.69581 | 9.24240 | 1185 ft | 3 kts | 121° |
| 2026-05-07 19:15 | 48.69552 | 9.24289 | 1183 ft | 8 kts | 144° |
| 2026-05-07 19:15 | 48.69522 | 9.24308 | 1181 ft | 0 kts | 164° |
| 2026-05-07 19:15 | 48.69518 | 9.24309 | 1181 ft | 0 kts | 164° |
| 2026-05-07 19:16 | 48.69508 | 9.24314 | 1181 ft | 3 kts | 164° |
| 2026-05-07 19:16 | 48.69470 | 9.24329 | 1179 ft | 7 kts | 169° |
| 2026-05-07 19:17 | 48.69409 | 9.24318 | 1179 ft | 9 kts | 210° |
| 2026-05-07 19:17 | 48.69375 | 9.24241 | 1180 ft | 8 kts | 253° |
| 2026-05-07 19:17 | 48.69358 | 9.24151 | 1181 ft | 11 kts | 255° |
| 2026-05-07 19:17 | 48.69287 | 9.23771 | 1190 ft | 72 kts | 254° |
| 2026-05-07 19:18 | 48.69089 | 9.22736 | 1215 ft | 132 kts | 255° |
| 2026-05-07 19:18 | 48.68811 | 9.21190 | 1496 ft | 159 kts | 255° |
| 2026-05-07 19:18 | 48.68533 | 9.19571 | 2085 ft | 163 kts | 254° |
| 2026-05-07 19:18 | 48.68226 | 9.17936 | 2813 ft | 163 kts | 253° |
| 2026-05-07 19:19 | 48.67902 | 9.16292 | 3372 ft | 173 kts | 252° |
| 2026-05-07 19:19 | 48.67535 | 9.14470 | 3857 ft | 190 kts | 252° |
| 2026-05-07 19:19 | 48.67131 | 9.12474 | 4346 ft | 208 kts | 253° |
| 2026-05-07 19:19 | 48.66943 | 9.10171 | 4742 ft | 234 kts | 276° |
| 2026-05-07 19:20 | 48.67498 | 9.07851 | 5506 ft | 245 kts | 303° |
| 2026-05-07 19:20 | 48.68734 | 9.06103 | 6406 ft | 251 kts | 330° |
| 2026-05-07 19:20 | 48.70418 | 9.05307 | 7145 ft | 264 kts | 347° |
| 2026-05-07 19:20 | 48.72264 | 9.04683 | 7733 ft | 279 kts | 343° |
| 2026-05-07 19:21 | 48.74146 | 9.03966 | 8539 ft | 285 kts | 348° |
| 2026-05-07 19:21 | 48.76128 | 9.03992 | 9380 ft | 292 kts | 13° |
| 2026-05-07 19:21 | 48.77938 | 9.05338 | 10212 ft | 297 kts | 39° |
| 2026-05-07 19:21 | 48.79222 | 9.07775 | 10838 ft | 308 kts | 62° |
| 2026-05-07 19:22 | 48.80182 | 9.10795 | 11290 ft | 325 kts | 65° |
| 2026-05-07 19:22 | 48.81124 | 9.13981 | 11670 ft | 343 kts | 66° |
| 2026-05-07 19:22 | 48.82138 | 9.17404 | 12034 ft | 361 kts | 65° |
| 2026-05-07 19:22 | 48.83179 | 9.20869 | 12617 ft | 370 kts | 65° |
| 2026-05-07 19:23 | 48.84256 | 9.24418 | 13358 ft | 373 kts | 65° |
| 2026-05-07 19:23 | 48.85352 | 9.28009 | 13857 ft | 376 kts | 65° |
| 2026-05-07 19:23 | 48.86459 | 9.31630 | 14064 ft | 377 kts | 65° |
| 2026-05-07 19:23 | 48.87560 | 9.35226 | 14067 ft | 377 kts | 65° |
| 2026-05-07 19:24 | 48.88655 | 9.38799 | 14069 ft | 376 kts | 65° |
| 2026-05-07 19:24 | 48.89763 | 9.42419 | 14070 ft | 376 kts | 65° |
| 2026-05-07 19:24 | 48.90864 | 9.46019 | 14070 ft | 376 kts | 65° |
| 2026-05-07 19:24 | 48.91965 | 9.49627 | 14070 ft | 376 kts | 65° |
| 2026-05-07 19:25 | 48.93068 | 9.53244 | 14070 ft | 376 kts | 65° |
| 2026-05-07 19:25 | 48.94164 | 9.56848 | 14070 ft | 376 kts | 65° |
| 2026-05-07 19:25 | 48.95257 | 9.60442 | 14127 ft | 381 kts | 65° |
| 2026-05-07 19:25 | 48.96370 | 9.64111 | 14713 ft | 385 kts | 65° |
| 2026-05-07 19:26 | 48.97497 | 9.67829 | 15548 ft | 385 kts | 65° |
| 2026-05-07 19:26 | 48.98602 | 9.71482 | 16225 ft | 388 kts | 65° |
| 2026-05-07 19:26 | 48.99735 | 9.75234 | 16865 ft | 393 kts | 65° |
| 2026-05-07 19:26 | 49.00880 | 9.79028 | 17499 ft | 396 kts | 65° |
| 2026-05-07 19:27 | 49.02027 | 9.82835 | 18117 ft | 400 kts | 65° |
| 2026-05-07 19:27 | 49.03198 | 9.86727 | 18726 ft | 404 kts | 65° |
| 2026-05-07 19:27 | 49.04357 | 9.90589 | 19309 ft | 407 kts | 65° |
| 2026-05-07 19:27 | 49.05535 | 9.94515 | 19883 ft | 411 kts | 65° |
| 2026-05-07 19:28 | 49.06723 | 9.98480 | 20445 ft | 414 kts | 65° |
| 2026-05-07 19:28 | 49.07921 | 10.02488 | 20996 ft | 418 kts | 65° |
| 2026-05-07 19:28 | 49.09131 | 10.06539 | 21535 ft | 421 kts | 65° |
| 2026-05-07 19:28 | 49.10344 | 10.10611 | 22059 ft | 425 kts | 65° |
| 2026-05-07 19:29 | 49.11564 | 10.14716 | 22569 ft | 428 kts | 65° |
| 2026-05-07 19:29 | 49.12799 | 10.18811 | 22965 ft | 431 kts | 63° |
| 2026-05-07 19:29 | 49.14265 | 10.22790 | 23064 ft | 431 kts | 56° |
| 2026-05-07 19:29 | 49.16047 | 10.26518 | 23067 ft | 430 kts | 49° |
| 2026-05-07 19:30 | 49.18055 | 10.29876 | 23071 ft | 429 kts | 44° |
| 2026-05-07 19:30 | 49.20148 | 10.33090 | 23071 ft | 429 kts | 43° |
| 2026-05-07 19:30 | 49.22265 | 10.36307 | 23070 ft | 429 kts | 44° |
| 2026-05-07 19:30 | 49.24370 | 10.39524 | 23070 ft | 429 kts | 44° |
| 2026-05-07 19:31 | 49.26471 | 10.42723 | 23070 ft | 429 kts | 43° |
| 2026-05-07 19:31 | 49.28588 | 10.45945 | 23070 ft | 429 kts | 43° |
| 2026-05-07 19:31 | 49.30689 | 10.49152 | 23070 ft | 429 kts | 44° |
| 2026-05-07 19:31 | 49.32805 | 10.52393 | 23070 ft | 429 kts | 44° |
| 2026-05-07 19:32 | 49.34907 | 10.55620 | 23070 ft | 429 kts | 44° |
| 2026-05-07 19:32 | 49.36962 | 10.58888 | 23070 ft | 429 kts | 45° |
| 2026-05-07 19:32 | 49.39022 | 10.62243 | 23070 ft | 429 kts | 45° |
| 2026-05-07 19:32 | 49.41069 | 10.65587 | 23070 ft | 429 kts | 46° |
| 2026-05-07 19:33 | 49.43119 | 10.68876 | 23070 ft | 429 kts | 45° |
| 2026-05-07 19:33 | 49.45195 | 10.72140 | 23070 ft | 429 kts | 45° |
| 2026-05-07 19:33 | 49.47293 | 10.75429 | 23070 ft | 429 kts | 45° |
| 2026-05-07 19:33 | 49.49455 | 10.78567 | 23068 ft | 429 kts | 39° |
| 2026-05-07 19:34 | 49.51853 | 10.81255 | 23069 ft | 427 kts | 31° |
| 2026-05-07 19:34 | 49.54465 | 10.83422 | 23069 ft | 426 kts | 23° |
| 2026-05-07 19:34 | 49.57145 | 10.85185 | 23071 ft | 426 kts | 21° |
| 2026-05-07 19:34 | 49.59888 | 10.86886 | 23071 ft | 426 kts | 20° |
| 2026-05-07 19:35 | 49.62653 | 10.88591 | 23070 ft | 426 kts | 20° |
| 2026-05-07 19:35 | 49.65394 | 10.90295 | 23070 ft | 426 kts | 20° |
| 2026-05-07 19:35 | 49.68108 | 10.91995 | 23070 ft | 426 kts | 21° |
| 2026-05-07 19:35 | 49.70855 | 10.93725 | 23070 ft | 426 kts | 21° |
| 2026-05-07 19:36 | 49.73566 | 10.95439 | 23070 ft | 426 kts | 21° |
| 2026-05-07 19:36 | 49.76333 | 10.97191 | 23070 ft | 426 kts | 21° |
| 2026-05-07 19:36 | 49.79055 | 10.98919 | 23070 ft | 426 kts | 21° |
| 2026-05-07 19:36 | 49.81765 | 11.00641 | 23070 ft | 426 kts | 21° |
| 2026-05-07 19:37 | 49.84515 | 11.02392 | 23070 ft | 426 kts | 21° |
| 2026-05-07 19:37 | 49.87192 | 11.04246 | 23070 ft | 426 kts | 24° |
| 2026-05-07 19:37 | 49.89818 | 11.06340 | 23070 ft | 427 kts | 27° |
| 2026-05-07 19:37 | 49.92395 | 11.08644 | 23071 ft | 427 kts | 29° |
| 2026-05-07 19:38 | 49.94946 | 11.11007 | 23070 ft | 427 kts | 30° |
| 2026-05-07 19:38 | 49.97503 | 11.13391 | 23070 ft | 427 kts | 30° |
| 2026-05-07 19:38 | 50.00030 | 11.15745 | 23070 ft | 427 kts | 29° |
| 2026-05-07 19:38 | 50.02583 | 11.18119 | 23070 ft | 427 kts | 29° |
| 2026-05-07 19:39 | 50.05144 | 11.20335 | 23065 ft | 426 kts | 23° |
| 2026-05-07 19:39 | 50.07937 | 11.21914 | 23068 ft | 424 kts | 13° |
| 2026-05-07 19:39 | 50.10822 | 11.22687 | 23069 ft | 422 kts | 2° |
| 2026-05-07 19:39 | 50.13744 | 11.22836 | 23072 ft | 421 kts | 358° |
| 2026-05-07 19:40 | 50.16641 | 11.22818 | 23071 ft | 421 kts | 358° |
| 2026-05-07 19:40 | 50.19565 | 11.22786 | 23071 ft | 421 kts | 358° |
| 2026-05-07 19:40 | 50.22489 | 11.22771 | 23070 ft | 421 kts | 358° |
| 2026-05-07 19:40 | 50.25438 | 11.22772 | 23070 ft | 421 kts | 358° |
| 2026-05-07 19:41 | 50.28355 | 11.22781 | 23070 ft | 421 kts | 358° |
| 2026-05-07 19:41 | 50.31260 | 11.22796 | 23070 ft | 421 kts | 358° |
| 2026-05-07 19:41 | 50.34171 | 11.22812 | 23070 ft | 421 kts | 358° |
| 2026-05-07 19:41 | 50.37110 | 11.22748 | 23070 ft | 421 kts | 356° |
| 2026-05-07 19:42 | 50.39995 | 11.22564 | 23070 ft | 421 kts | 355° |
| 2026-05-07 19:42 | 50.42922 | 11.22346 | 22822 ft | 422 kts | 355° |
| 2026-05-07 19:42 | 50.45844 | 11.22123 | 22193 ft | 420 kts | 355° |
| 2026-05-07 19:42 | 50.48748 | 11.21902 | 21566 ft | 418 kts | 355° |
| 2026-05-07 19:43 | 50.51637 | 11.21684 | 20940 ft | 416 kts | 355° |
| 2026-05-07 19:43 | 50.54489 | 11.21471 | 20317 ft | 414 kts | 355° |
| 2026-05-07 19:43 | 50.57335 | 11.21259 | 19693 ft | 411 kts | 355° |
| 2026-05-07 19:43 | 50.60187 | 11.21051 | 19219 ft | 405 kts | 356° |
| 2026-05-07 19:44 | 50.62921 | 11.21309 | 19070 ft | 392 kts | 7° |
| 2026-05-07 19:44 | 50.65498 | 11.22348 | 19066 ft | 376 kts | 18° |
| 2026-05-07 19:44 | 50.67850 | 11.23908 | 19067 ft | 359 kts | 23° |
| 2026-05-07 19:44 | 50.70068 | 11.25540 | 19063 ft | 344 kts | 24° |
| 2026-05-07 19:45 | 50.72185 | 11.27119 | 19067 ft | 338 kts | 24° |
| 2026-05-07 19:45 | 50.74294 | 11.28683 | 19069 ft | 338 kts | 23° |
| 2026-05-07 19:45 | 50.76438 | 11.30264 | 19070 ft | 338 kts | 23° |
| 2026-05-07 19:45 | 50.78539 | 11.31808 | 19070 ft | 338 kts | 23° |
| 2026-05-07 19:46 | 50.80679 | 11.33378 | 19070 ft | 338 kts | 23° |
| 2026-05-07 19:46 | 50.82804 | 11.34936 | 19070 ft | 338 kts | 23° |
| 2026-05-07 19:46 | 50.84936 | 11.36500 | 19070 ft | 338 kts | 23° |
| 2026-05-07 19:46 | 50.87040 | 11.38044 | 19070 ft | 338 kts | 23° |
| 2026-05-07 19:47 | 50.89185 | 11.39619 | 19070 ft | 338 kts | 23° |
| 2026-05-07 19:47 | 50.91292 | 11.41169 | 19070 ft | 338 kts | 23° |
| 2026-05-07 19:47 | 50.93416 | 11.42732 | 19070 ft | 338 kts | 23° |
| 2026-05-07 19:47 | 50.95534 | 11.44292 | 19070 ft | 338 kts | 23° |
| 2026-05-07 19:48 | 50.97659 | 11.45859 | 19070 ft | 337 kts | 23° |
| 2026-05-07 19:48 | 50.99779 | 11.47424 | 18910 ft | 331 kts | 23° |
| 2026-05-07 19:48 | 51.01817 | 11.48931 | 18270 ft | 327 kts | 23° |
| 2026-05-07 19:48 | 51.03898 | 11.50470 | 17428 ft | 328 kts | 23° |
| 2026-05-07 19:49 | 51.05929 | 11.51972 | 16718 ft | 325 kts | 23° |
| 2026-05-07 19:49 | 51.07956 | 11.53483 | 16028 ft | 322 kts | 25° |
| 2026-05-07 19:49 | 51.09761 | 11.55565 | 15284 ft | 322 kts | 48° |
| 2026-05-07 19:49 | 51.10994 | 11.58464 | 14618 ft | 317 kts | 60° |
| 2026-05-07 19:50 | 51.12010 | 11.61539 | 13936 ft | 313 kts | 63° |
| 2026-05-07 19:50 | 51.12968 | 11.64591 | 13208 ft | 311 kts | 63° |
| 2026-05-07 19:50 | 51.13916 | 11.67638 | 12490 ft | 308 kts | 64° |
| 2026-05-07 19:50 | 51.14855 | 11.70659 | 11782 ft | 304 kts | 64° |
| 2026-05-07 19:51 | 51.15792 | 11.73671 | 11072 ft | 301 kts | 64° |
| 2026-05-07 19:51 | 51.16707 | 11.76615 | 10374 ft | 298 kts | 64° |
| 2026-05-07 19:51 | 51.17622 | 11.79563 | 9670 ft | 295 kts | 64° |
| 2026-05-07 19:51 | 51.18524 | 11.82467 | 8973 ft | 292 kts | 64° |
| 2026-05-07 19:52 | 51.19423 | 11.85332 | 8278 ft | 289 kts | 60° |
| 2026-05-07 19:52 | 51.20679 | 11.87718 | 7561 ft | 286 kts | 34° |
| 2026-05-07 19:52 | 51.22456 | 11.88918 | 7124 ft | 269 kts | 5° |
| 2026-05-07 19:52 | 51.24230 | 11.88670 | 6742 ft | 252 kts | 337° |
| 2026-05-07 19:53 | 51.25628 | 11.87184 | 6177 ft | 244 kts | 307° |
| 2026-05-07 19:53 | 51.26423 | 11.84855 | 5592 ft | 239 kts | 288° |
| 2026-05-07 19:53 | 51.26928 | 11.82338 | 5054 ft | 239 kts | 284° |
| 2026-05-07 19:53 | 51.27470 | 11.79838 | 4831 ft | 235 kts | 299° |
| 2026-05-07 19:54 | 51.28600 | 11.78016 | 4604 ft | 234 kts | 330° |
| 2026-05-07 19:54 | 51.30151 | 11.77412 | 4302 ft | 237 kts | 2° |
| 2026-05-07 19:54 | 51.31709 | 11.78221 | 4012 ft | 238 kts | 36° |
| 2026-05-07 19:54 | 51.32956 | 11.79990 | 3989 ft | 239 kts | 38° |
| 2026-05-07 19:55 | 51.34364 | 11.81121 | 3960 ft | 221 kts | 6° |
| 2026-05-07 19:55 | 51.35813 | 11.80865 | 3972 ft | 211 kts | 334° |
| 2026-05-07 19:55 | 51.37119 | 11.79769 | 3992 ft | 210 kts | 326° |
| 2026-05-07 19:55 | 51.38386 | 11.78628 | 3973 ft | 210 kts | 339° |
| 2026-05-07 19:56 | 51.39755 | 11.78204 | 4052 ft | 197 kts | 358° |
| 2026-05-07 19:56 | 51.41037 | 11.78863 | 4000 ft | 199 kts | 37° |
| 2026-05-07 19:56 | 51.41807 | 11.80669 | 3984 ft | 199 kts | 76° |
| 2026-05-07 19:56 | 51.41800 | 11.82869 | 3999 ft | 197 kts | 101° |
| 2026-05-07 19:57 | 51.41589 | 11.85018 | 3990 ft | 198 kts | 98° |
| 2026-05-07 19:57 | 51.41510 | 11.87218 | 3981 ft | 197 kts | 91° |
| 2026-05-07 19:57 | 51.41595 | 11.89383 | 3778 ft | 195 kts | 85° |
| 2026-05-07 19:57 | 51.41745 | 11.91569 | 3413 ft | 196 kts | 85° |
| 2026-05-07 19:58 | 51.41884 | 11.93745 | 3093 ft | 195 kts | 86° |
| 2026-05-07 19:58 | 51.41997 | 11.95869 | 2989 ft | 194 kts | 87° |
| 2026-05-07 19:58 | 51.42096 | 11.98043 | 2987 ft | 196 kts | 87° |
| 2026-05-07 19:58 | 51.42188 | 12.00224 | 2979 ft | 196 kts | 87° |
| 2026-05-07 19:59 | 51.42278 | 12.02396 | 2816 ft | 196 kts | 87° |
| 2026-05-07 19:59 | 51.42370 | 12.04584 | 2554 ft | 195 kts | 87° |
| 2026-05-07 19:59 | 51.42462 | 12.06732 | 2296 ft | 194 kts | 87° |
| 2026-05-07 19:59 | 51.42556 | 12.08879 | 2039 ft | 192 kts | 87° |
| 2026-05-07 20:00 | 51.42651 | 12.11011 | 1781 ft | 189 kts | 87° |
| 2026-05-07 20:00 | 51.42742 | 12.13048 | 1552 ft | 177 kts | 87° |
| 2026-05-07 20:00 | 51.42827 | 12.14947 | 1309 ft | 167 kts | 87° |
| 2026-05-07 20:00 | 51.42907 | 12.16721 | 1085 ft | 153 kts | 87° |
| 2026-05-07 20:01 | 51.42982 | 12.18365 | 880 ft | 145 kts | 87° |
| 2026-05-07 20:01 | 51.43055 | 12.19971 | 703 ft | 145 kts | 87° |
| 2026-05-07 20:01 | 51.43127 | 12.21581 | 511 ft | 144 kts | 88° |
| 2026-05-07 20:01 | 51.43190 | 12.23085 | 469 ft | 120 kts | 87° |
| 2026-05-07 20:02 | 51.43241 | 12.24151 | 469 ft | 70 kts | 85° |
| 2026-05-07 20:02 | 51.43270 | 12.24733 | 469 ft | 44 kts | 85° |
| 2026-05-07 20:02 | 51.43289 | 12.25154 | 469 ft | 34 kts | 88° |
| 2026-05-07 20:02 | 51.43238 | 12.25501 | 469 ft | 21 kts | 115° |
| 2026-05-07 20:03 | 51.43198 | 12.25636 | 469 ft | 0 kts | 115° |
| 2026-05-07 20:03 | 51.43198 | 12.25637 | 469 ft | 0 kts | 115° |
| 2026-05-07 20:03 | 51.43194 | 12.25650 | 469 ft | 2 kts | 115° |
| 2026-05-07 20:03 | 51.43185 | 12.25679 | 469 ft | 4 kts | 116° |
| 2026-05-07 20:04 | 51.43168 | 12.25735 | 469 ft | 6 kts | 122° |
| 2026-05-07 20:04 | 51.43125 | 12.25792 | 469 ft | 9 kts | 154° |
| 2026-05-07 20:04 | 51.43091 | 12.25810 | 469 ft | 3 kts | 182° |
| 2026-05-07 20:04 | 51.43055 | 12.25807 | 469 ft | 6 kts | 189° |
| 2026-05-07 20:05 | 51.43012 | 12.25766 | 469 ft | 8 kts | 242° |
| 2026-05-07 20:05 | 51.43004 | 12.25657 | 469 ft | 11 kts | 266° |
| 2026-05-07 20:05 | 51.42999 | 12.25520 | 469 ft | 13 kts | 266° |
| 2026-05-07 20:05 | 51.42991 | 12.25365 | 469 ft | 13 kts | 263° |
| 2026-05-07 20:06 | 51.42934 | 12.25265 | 469 ft | 13 kts | 196° |
| 2026-05-07 20:06 | 51.42873 | 12.25238 | 469 ft | 9 kts | 194° |
| 2026-05-07 20:06 | 51.42807 | 12.25213 | 469 ft | 10 kts | 191° |
| 2026-05-07 20:06 | 51.42733 | 12.25189 | 469 ft | 11 kts | 192° |
| 2026-05-07 20:07 | 51.42655 | 12.25159 | 469 ft | 12 kts | 194° |
| 2026-05-07 20:07 | 51.42572 | 12.25125 | 469 ft | 12 kts | 194° |
| 2026-05-07 20:07 | 51.42483 | 12.25090 | 469 ft | 13 kts | 191° |
| 2026-05-07 20:07 | 51.42390 | 12.25056 | 469 ft | 13 kts | 207° |
| 2026-05-07 20:08 | 51.42299 | 12.25015 | 469 ft | 13 kts | 194° |
| 2026-05-07 20:08 | 51.42204 | 12.24980 | 469 ft | 14 kts | 192° |
| 2026-05-07 20:08 | 51.42104 | 12.24945 | 469 ft | 14 kts | 193° |
| 2026-05-07 20:08 | 51.42003 | 12.24906 | 469 ft | 15 kts | 193° |
| 2026-05-07 20:09 | 51.41898 | 12.24865 | 469 ft | 15 kts | 193° |
| 2026-05-07 20:09 | 51.41823 | 12.24837 | 469 ft | 8 kts | 193° |
| 2026-05-07 20:09 | 51.41759 | 12.24812 | 469 ft | 10 kts | 193° |
| 2026-05-07 20:10 | 51.41666 | 12.24714 | 469 ft | 9 kts | 259° |
| 2026-05-07 20:10 | 51.41660 | 12.24606 | 469 ft | 10 kts | 265° |
| 2026-05-07 20:10 | 51.41653 | 12.24489 | 469 ft | 10 kts | 264° |
| 2026-05-07 20:10 | 51.41647 | 12.24363 | 469 ft | 11 kts | 265° |
| 2026-05-07 20:11 | 51.41640 | 12.24231 | 469 ft | 12 kts | 265° |
| 2026-05-07 20:11 | 51.41633 | 12.24093 | 469 ft | 12 kts | 265° |
| 2026-05-07 20:11 | 51.41626 | 12.23948 | 469 ft | 13 kts | 265° |
| 2026-05-07 20:11 | 51.41621 | 12.23821 | 469 ft | 9 kts | 266° |
| 2026-05-07 20:12 | 51.41617 | 12.23713 | 469 ft | 10 kts | 266° |
| 2026-05-07 20:12 | 51.41612 | 12.23597 | 469 ft | 10 kts | 265° |
| 2026-05-07 20:12 | 51.41605 | 12.23472 | 469 ft | 11 kts | 264° |
| 2026-05-07 20:12 | 51.41598 | 12.23340 | 469 ft | 12 kts | 266° |
| 2026-05-07 20:13 | 51.41604 | 12.23203 | 469 ft | 12 kts | 283° |
| 2026-05-07 20:13 | 51.41627 | 12.23063 | 469 ft | 13 kts | 285° |
| 2026-05-07 20:13 | 51.41647 | 12.22944 | 469 ft | 9 kts | 285° |
| 2026-05-07 20:13 | 51.41666 | 12.22831 | 469 ft | 10 kts | 284° |
| 2026-05-07 20:14 | 51.41687 | 12.22711 | 469 ft | 11 kts | 286° |
| 2026-05-07 20:14 | 51.41710 | 12.22580 | 469 ft | 12 kts | 285° |
| 2026-05-07 20:14 | 51.41733 | 12.22442 | 469 ft | 13 kts | 285° |
| 2026-05-07 20:14 | 51.41758 | 12.22297 | 469 ft | 13 kts | 285° |
| 2026-05-07 20:15 | 51.41784 | 12.22147 | 469 ft | 14 kts | 285° |
| 2026-05-07 20:15 | 51.41811 | 12.21992 | 469 ft | 14 kts | 285° |
| 2026-05-07 20:15 | 51.41826 | 12.21902 | 469 ft | 7 kts | 285° |
| 2026-05-07 20:15 | 51.41852 | 12.21841 | 469 ft | 7 kts | 354° |
| 2026-05-07 20:16 | 51.41896 | 12.21862 | 469 ft | 4 kts | 14° |
| 2026-05-07 20:16 | 51.41925 | 12.21875 | 469 ft | 0 kts | 15° |
| 2026-05-07 20:16 | 51.41933 | 12.21878 | 469 ft | 0 kts | 15° |
| 2026-05-07 20:16 | 51.41936 | 12.21880 | 469 ft | 0 kts | 15° |